createdAt,value
2023-03-07T00:00:07.049Z,14.24
2023-03-07T00:02:34.289Z,14.41
2023-03-07T00:05:01.753Z,14.01
2023-03-07T00:07:30.387Z,14.76
2023-03-07T00:09:57.765Z,13.76
2023-03-07T00:12:25.924Z,14.32
2023-03-07T00:14:53.110Z,15.07
2023-03-07T00:17:20.288Z,14.68
2023-03-07T00:19:47.554Z,15.32
2023-03-07T00:22:14.818Z,15.37
2023-03-07T00:24:43.631Z,16.32
2023-03-07T00:27:10.973Z,15.69
2023-03-07T00:29:38.126Z,16.20
2023-03-07T00:32:06.076Z,15.69
2023-03-07T00:34:33.326Z,15.83
2023-03-07T00:37:00.469Z,15.37
2023-03-07T00:39:27.623Z,15.42
2023-03-07T00:41:56.285Z,15.01
2023-03-07T00:44:23.472Z,15.10
2023-03-07T00:46:50.586Z,15.40
2023-03-07T00:49:17.776Z,15.49
2023-03-07T00:51:45.010Z,15.56
2023-03-07T00:54:12.386Z,16.34
2023-03-07T00:56:39.528Z,15.72
2023-03-07T00:59:08.976Z,16.12
2023-03-07T01:01:36.727Z,16.35
2023-03-07T01:04:04.692Z,16.58
2023-03-07T01:06:33.446Z,17.05
2023-03-07T01:09:02.659Z,16.99
2023-03-07T01:11:31.490Z,17.08
2023-03-07T01:14:00.435Z,16.55
2023-03-07T01:16:31.608Z,16.69
2023-03-07T01:19:00.910Z,16.31
2023-03-07T01:21:30.370Z,16.98
2023-03-07T01:23:58.069Z,16.19
2023-03-07T01:26:28.327Z,16.59
2023-03-07T01:28:57.367Z,16.49
2023-03-07T01:31:26.144Z,16.92
2023-03-07T01:33:55.110Z,16.83
2023-03-07T01:36:24.938Z,16.14
2023-03-07T01:38:56.157Z,16.11
2023-03-07T01:41:24.126Z,17.13
2023-03-07T01:43:51.347Z,16.74
2023-03-07T01:46:46.988Z,15.87
2023-03-07T01:49:22.451Z,16.99
2023-03-07T01:51:54.646Z,16.80
2023-03-07T01:54:24.203Z,16.93
2023-03-07T01:56:53.187Z,17.27
2023-03-07T01:59:29.941Z,17.05
2023-03-07T02:02:03.425Z,17.14
2023-03-07T02:04:40.011Z,16.97
2023-03-07T02:07:10.324Z,17.23
2023-03-07T02:09:39.000Z,17.07
2023-03-07T02:12:07.381Z,17.61
2023-03-07T02:14:34.701Z,18.14
2023-03-07T02:17:02.055Z,16.89
2023-03-07T02:19:46.481Z,17.51
2023-03-07T02:22:18.242Z,17.76
2023-03-07T02:24:52.924Z,17.90
2023-03-07T02:27:24.624Z,17.90
2023-03-07T02:29:52.504Z,17.76
2023-03-07T02:32:19.735Z,17.25
2023-03-07T02:34:46.982Z,17.05
2023-03-07T02:37:19.762Z,17.09
2023-03-07T02:39:48.482Z,17.67
2023-03-07T02:42:21.762Z,17.49
2023-03-07T02:44:56.521Z,17.68
2023-03-07T02:47:23.785Z,17.31
2023-03-07T02:49:50.989Z,17.26
2023-03-07T02:52:18.383Z,16.00
2023-03-07T02:54:45.563Z,16.56
2023-03-07T02:57:12.722Z,16.71
2023-03-07T02:59:39.884Z,14.25
2023-03-07T03:02:08.564Z,14.83
2023-03-07T03:04:35.681Z,14.99
2023-03-07T03:07:02.927Z,14.78
2023-03-07T03:09:30.790Z,14.75
2023-03-07T03:11:58.567Z,15.01
2023-03-07T03:14:26.163Z,14.57
2023-03-07T03:16:53.447Z,14.64
2023-03-07T03:19:22.074Z,15.45
2023-03-07T03:21:49.694Z,14.39
2023-03-07T03:24:17.111Z,14.98
2023-03-07T03:26:44.252Z,15.67
2023-03-07T03:29:11.490Z,14.42
2023-03-07T03:31:38.726Z,14.27
2023-03-07T03:34:05.899Z,14.35
2023-03-07T03:36:34.646Z,15.44
2023-03-07T03:39:01.791Z,14.95
2023-03-07T03:41:28.947Z,14.46
2023-03-07T03:43:56.187Z,14.44
2023-03-07T03:46:23.526Z,14.85
2023-03-07T03:48:55.229Z,15.15
2023-03-07T03:51:24.067Z,14.75
2023-03-07T03:53:52.979Z,14.28
2023-03-07T03:56:22.152Z,15.20
2023-03-07T03:58:51.785Z,15.17
2023-03-07T04:01:21.757Z,14.76
2023-03-07T04:03:51.971Z,14.95
2023-03-07T04:06:21.172Z,15.01
2023-03-07T04:08:48.757Z,14.76
2023-03-07T04:11:17.467Z,14.67
2023-03-07T04:13:44.645Z,15.16
2023-03-07T04:16:11.978Z,14.28
2023-03-07T04:18:39.663Z,14.91
2023-03-07T04:21:07.569Z,14.81
2023-03-07T04:23:35.029Z,14.67
2023-03-07T04:26:04.626Z,14.83
2023-03-07T04:28:36.343Z,14.68
2023-03-07T04:31:03.563Z,14.53
2023-03-07T04:33:30.724Z,14.90
2023-03-07T04:35:57.842Z,14.64
2023-03-07T04:38:25.283Z,14.86
2023-03-07T04:40:52.381Z,14.45
2023-03-07T04:43:19.624Z,14.97
2023-03-07T04:45:48.320Z,16.01
2023-03-07T04:48:15.524Z,15.23
2023-03-07T04:50:42.696Z,15.30
2023-03-07T04:53:09.906Z,14.81
2023-03-07T04:55:37.043Z,14.61
2023-03-07T04:58:04.215Z,14.96
2023-03-07T05:00:31.425Z,15.74
2023-03-07T05:03:00.024Z,15.00
2023-03-07T05:05:27.323Z,15.82
2023-03-07T05:07:54.464Z,15.45
2023-03-07T05:10:21.665Z,15.00
2023-03-07T05:12:48.829Z,15.10
2023-03-07T05:15:15.988Z,15.38
2023-03-07T05:17:43.121Z,15.92
2023-03-07T05:20:12.462Z,15.20
2023-03-07T05:22:39.708Z,15.49
2023-03-07T05:25:07.580Z,15.55
2023-03-07T05:27:34.872Z,15.52
2023-03-07T05:30:02.364Z,16.48
2023-03-07T05:32:29.597Z,17.93
2023-03-07T05:34:56.902Z,16.06
2023-03-07T05:37:25.702Z,16.09
2023-03-07T05:39:52.962Z,16.80
2023-03-07T05:42:20.167Z,15.14
2023-03-07T05:44:47.302Z,14.98
2023-03-07T05:47:14.427Z,15.62
2023-03-07T05:49:41.689Z,15.55
2023-03-07T05:52:08.909Z,15.56
2023-03-07T05:54:37.603Z,15.76
2023-03-07T05:57:04.787Z,15.14
2023-03-07T05:59:31.935Z,15.48
2023-03-07T06:01:59.089Z,15.38
2023-03-07T06:04:26.564Z,15.72
2023-03-07T06:06:53.765Z,15.65
2023-03-07T06:09:20.967Z,15.80
2023-03-07T06:11:49.708Z,15.80
2023-03-07T06:14:16.965Z,16.01
2023-03-07T06:16:44.156Z,15.71
2023-03-07T06:19:11.381Z,16.31
2023-03-07T06:21:38.855Z,15.46
2023-03-07T06:24:07.250Z,15.38
2023-03-07T06:26:34.502Z,15.97
2023-03-07T06:29:03.447Z,16.77
2023-03-07T06:31:30.761Z,17.41
2023-03-07T06:33:58.046Z,17.60
2023-03-07T06:36:25.364Z,19.48
2023-03-07T06:38:52.544Z,19.40
2023-03-07T06:41:19.845Z,19.95
2023-03-07T06:43:50.496Z,18.65
2023-03-07T06:46:19.225Z,18.27
2023-03-07T06:48:46.963Z,17.89
2023-03-07T06:51:14.463Z,17.18
2023-03-07T06:53:41.583Z,17.77
2023-03-07T06:56:09.044Z,16.60
2023-03-07T06:58:36.269Z,11.85
2023-03-07T07:01:03.448Z,13.84
2023-03-07T07:03:32.346Z,13.67
2023-03-07T07:05:59.747Z,13.94
2023-03-07T07:08:26.945Z,12.93
2023-03-07T07:10:54.147Z,12.96
2023-03-07T07:13:21.424Z,12.65
2023-03-07T07:15:49.924Z,14.35
2023-03-07T07:18:17.084Z,15.73
2023-03-07T07:20:45.927Z,16.25
2023-03-07T07:23:13.023Z,16.08
2023-03-07T07:25:40.366Z,15.48
2023-03-07T07:28:07.684Z,16.32
2023-03-07T07:30:34.989Z,14.82
2023-03-07T07:33:02.227Z,15.48
2023-03-07T07:35:29.481Z,15.27
2023-03-07T07:37:58.244Z,15.02
2023-03-07T07:40:25.584Z,15.42
2023-03-07T07:42:52.870Z,15.04
2023-03-07T07:45:20.108Z,15.33
2023-03-07T07:47:48.507Z,14.51
2023-03-07T07:50:16.968Z,14.47
2023-03-07T07:52:44.112Z,14.53
2023-03-07T07:55:13.848Z,14.48
2023-03-07T07:57:42.049Z,15.07
2023-03-07T08:00:11.294Z,14.06
2023-03-07T08:02:39.263Z,13.94
2023-03-07T08:05:08.969Z,13.17
2023-03-07T08:07:36.213Z,13.91
2023-03-07T08:10:03.576Z,14.14
2023-03-07T08:12:32.233Z,15.20
2023-03-07T08:14:59.457Z,15.66
2023-03-07T08:17:26.856Z,13.94
2023-03-07T08:19:54.091Z,14.15
2023-03-07T08:22:21.274Z,14.38
2023-03-07T08:24:48.433Z,14.69
2023-03-07T08:27:15.715Z,14.61
2023-03-07T08:29:49.138Z,15.15
2023-03-07T08:32:16.673Z,14.32
2023-03-07T08:34:43.957Z,13.96
2023-03-07T08:37:11.197Z,14.39
2023-03-07T08:39:38.579Z,13.18
2023-03-07T08:42:06.035Z,13.25
2023-03-07T08:44:33.294Z,13.16
2023-03-07T08:47:02.054Z,14.37
2023-03-07T08:49:29.411Z,13.58
2023-03-07T08:51:56.603Z,14.03
2023-03-07T08:54:23.731Z,14.89
2023-03-07T08:56:50.972Z,14.31
2023-03-07T08:59:18.162Z,14.13
2023-03-07T09:01:45.549Z,13.75
2023-03-07T09:04:14.336Z,13.53
2023-03-07T09:06:41.770Z,14.59
2023-03-07T09:09:08.938Z,15.03
2023-03-07T09:11:36.559Z,14.56
2023-03-07T09:14:03.695Z,13.74
2023-03-07T09:16:31.007Z,14.17
2023-03-07T09:18:58.152Z,15.16
2023-03-07T09:21:26.848Z,14.62
2023-03-07T09:23:54.092Z,15.33
2023-03-07T09:26:21.618Z,15.76
2023-03-07T09:28:48.989Z,14.48
2023-03-07T09:31:16.604Z,15.10
2023-03-07T09:33:46.520Z,15.55
2023-03-07T09:36:15.596Z,15.69
2023-03-07T09:38:44.577Z,15.10
2023-03-07T09:41:30.719Z,15.57
2023-03-07T09:44:08.810Z,16.39
2023-03-07T09:46:51.527Z,15.91
2023-03-07T09:49:20.753Z,15.99
2023-03-07T09:51:52.352Z,15.03
2023-03-07T09:54:26.218Z,15.70
2023-03-07T09:56:57.385Z,15.41
2023-03-07T09:59:34.927Z,16.52
2023-03-07T10:02:18.378Z,15.37
2023-03-07T10:04:54.984Z,15.85
2023-03-07T10:07:27.198Z,15.87
2023-03-07T10:10:01.163Z,16.97
2023-03-07T10:13:06.320Z,16.41
2023-03-07T10:15:45.850Z,15.63
2023-03-07T10:18:27.978Z,16.62
2023-03-07T10:21:06.017Z,16.34
2023-03-07T10:23:59.736Z,16.62
2023-03-07T10:26:33.778Z,15.84
2023-03-07T10:29:13.780Z,16.43
2023-03-07T10:31:47.115Z,16.22
2023-03-07T10:34:26.359Z,17.11
2023-03-07T10:37:08.762Z,15.64
2023-03-07T10:39:46.444Z,17.01
2023-03-07T10:42:19.453Z,16.28
2023-03-07T10:44:47.095Z,17.67
2023-03-07T10:47:20.748Z,16.95
2023-03-07T10:49:49.650Z,16.82
2023-03-07T10:52:32.367Z,17.53
2023-03-07T10:55:34.471Z,17.31
2023-03-07T10:58:22.586Z,17.80
2023-03-07T11:01:14.757Z,18.15
2023-03-07T11:03:53.458Z,18.22
2023-03-07T11:06:30.864Z,18.07
2023-03-07T11:09:07.490Z,18.11
2023-03-07T11:11:36.491Z,18.76
2023-03-07T11:14:12.751Z,18.65
2023-03-07T11:16:43.098Z,18.01
2023-03-07T11:19:32.160Z,17.55
2023-03-07T11:22:01.644Z,17.89
2023-03-07T11:24:31.764Z,18.11
2023-03-07T11:27:00.164Z,17.93
2023-03-07T11:29:28.924Z,18.64
2023-03-07T11:32:10.557Z,17.76
2023-03-07T11:34:47.408Z,18.16
2023-03-07T11:37:34.546Z,17.37
2023-03-07T11:40:21.386Z,18.24
2023-03-07T11:43:05.484Z,18.56
2023-03-07T11:45:47.551Z,17.75
2023-03-07T11:48:32.046Z,18.05
2023-03-07T11:51:01.266Z,18.66
2023-03-07T11:53:50.265Z,18.88
2023-03-07T11:56:25.984Z,19.20
2023-03-07T11:59:34.450Z,19.45
2023-03-07T12:02:28.995Z,18.53
2023-03-07T12:05:21.088Z,18.53
2023-03-07T12:08:04.403Z,18.61
2023-03-07T12:10:50.770Z,18.78
2023-03-07T12:13:37.353Z,19.00
2023-03-07T12:16:16.237Z,19.66
2023-03-07T12:19:11.154Z,17.86
2023-03-07T12:22:03.932Z,18.24
2023-03-07T12:24:37.812Z,17.95
2023-03-07T12:27:14.583Z,17.73
2023-03-07T12:29:49.284Z,18.24
2023-03-07T12:32:24.372Z,17.30
2023-03-07T12:34:59.480Z,17.16
2023-03-07T12:37:34.432Z,17.61
2023-03-07T12:40:04.522Z,17.09
2023-03-07T12:42:40.399Z,17.24
2023-03-07T12:45:12.807Z,16.69
2023-03-07T12:47:55.517Z,16.32
2023-03-07T12:50:32.074Z,15.69
2023-03-07T12:53:07.534Z,16.50
2023-03-07T12:55:43.061Z,16.78
2023-03-07T12:58:19.960Z,16.25
2023-03-07T13:00:52.185Z,16.30
2023-03-07T13:03:32.434Z,16.33
2023-03-07T13:06:01.371Z,15.94
2023-03-07T13:08:29.151Z,16.18
2023-03-07T13:10:56.773Z,16.51
2023-03-07T13:13:49.066Z,15.86
2023-03-07T13:16:36.425Z,15.37
2023-03-07T13:19:40.851Z,16.59
2023-03-07T13:22:57.078Z,17.29
2023-03-07T13:25:56.002Z,16.10
2023-03-07T13:28:38.153Z,16.03
2023-03-07T13:31:34.258Z,15.16
2023-03-07T13:34:39.730Z,14.98
2023-03-07T13:37:47.942Z,14.41
2023-03-07T13:40:30.310Z,12.89
2023-03-07T13:42:58.006Z,11.60
2023-03-07T13:45:50.146Z,12.23
2023-03-07T13:48:54.305Z,11.53
2023-03-07T13:51:22.610Z,11.24
2023-03-07T13:53:53.327Z,10.70
2023-03-07T13:56:26.459Z,10.79
2023-03-07T13:58:59.420Z,11.40
2023-03-07T14:01:33.072Z,11.13
2023-03-07T14:04:08.697Z,10.63
2023-03-07T14:06:43.320Z,11.11
2023-03-07T14:09:18.385Z,10.98
2023-03-07T14:12:00.433Z,11.60
2023-03-07T14:14:46.172Z,11.88
2023-03-07T14:17:38.894Z,12.00
2023-03-07T14:20:18.493Z,11.88
2023-03-07T14:23:05.863Z,11.67
2023-03-07T14:25:50.773Z,10.84
2023-03-07T14:28:23.339Z,11.12
2023-03-07T14:30:55.164Z,10.74
2023-03-07T14:33:30.196Z,11.29
2023-03-07T14:35:57.859Z,11.06
2023-03-07T14:38:27.455Z,11.20
2023-03-07T14:41:15.117Z,11.28
2023-03-07T14:44:04.373Z,10.78
2023-03-07T14:46:47.104Z,10.99
2023-03-07T14:49:29.165Z,11.15
2023-03-07T14:51:58.353Z,11.28
2023-03-07T14:54:33.076Z,11.60
2023-03-07T14:57:01.568Z,11.44
2023-03-07T14:59:30.565Z,11.80
2023-03-07T15:01:58.767Z,11.34
2023-03-07T15:04:28.659Z,10.72
2023-03-07T15:06:58.113Z,10.90
2023-03-07T15:09:26.642Z,10.53
2023-03-07T15:12:02.800Z,10.76
2023-03-07T15:14:43.069Z,10.16
2023-03-07T15:17:17.105Z,9.56
2023-03-07T15:19:49.836Z,9.64
2023-03-07T15:22:24.604Z,9.50
2023-03-07T15:24:53.916Z,9.51
2023-03-07T15:27:25.659Z,9.27
2023-03-07T15:29:56.032Z,9.61
2023-03-07T15:32:32.577Z,9.73
2023-03-07T15:35:01.622Z,9.81
2023-03-07T15:37:31.034Z,10.08
2023-03-07T15:40:04.016Z,9.96
2023-03-07T15:42:31.287Z,10.23
2023-03-07T15:45:03.854Z,11.27
2023-03-07T15:47:33.001Z,11.13
2023-03-07T15:50:03.802Z,11.52
2023-03-07T15:52:33.702Z,11.23
2023-03-07T15:55:03.814Z,11.51
2023-03-07T15:57:34.138Z,11.13
2023-03-07T16:00:07.574Z,11.35
2023-03-07T16:02:44.728Z,11.82
2023-03-07T16:05:38.116Z,12.48
2023-03-07T16:08:14.941Z,12.35
2023-03-07T16:10:50.143Z,12.46
2023-03-07T16:13:21.847Z,12.65
2023-03-07T16:16:02.274Z,13.68
2023-03-07T16:18:31.574Z,13.41
2023-03-07T16:20:59.359Z,13.50
2023-03-07T16:23:27.574Z,13.58
2023-03-07T16:25:55.484Z,13.74
2023-03-07T16:28:23.943Z,13.07
2023-03-07T16:30:51.238Z,12.42
2023-03-07T16:33:20.571Z,12.12
2023-03-07T16:35:47.857Z,12.16
2023-03-07T16:38:15.116Z,11.82
2023-03-07T16:40:44.659Z,10.79
2023-03-07T16:43:32.393Z,10.95
2023-03-07T16:46:01.559Z,10.71
2023-03-07T16:48:30.428Z,10.87
2023-03-07T16:50:57.771Z,11.30
2023-03-07T16:53:26.008Z,11.40
2023-03-07T16:55:56.104Z,12.10
2023-03-07T16:58:27.820Z,12.24
2023-03-07T17:00:55.570Z,12.78
2023-03-07T17:03:22.908Z,13.02
2023-03-07T17:05:51.652Z,13.07
2023-03-07T17:08:22.349Z,13.17
2023-03-07T17:10:49.598Z,13.17
2023-03-07T17:13:18.994Z,13.60
2023-03-07T17:15:46.269Z,13.39
2023-03-07T17:18:13.959Z,13.57
2023-03-07T17:20:42.372Z,12.81
2023-03-07T17:23:11.693Z,12.13
2023-03-07T17:25:40.174Z,12.70
2023-03-07T17:28:13.579Z,12.98
2023-03-07T17:30:40.954Z,12.81
2023-03-07T17:33:10.653Z,10.35
2023-03-07T17:35:38.409Z,9.69
2023-03-07T17:38:05.625Z,9.54
2023-03-07T17:40:34.494Z,9.70
2023-03-07T17:43:01.673Z,9.45
2023-03-07T17:45:29.200Z,10.85
2023-03-07T17:47:56.793Z,10.72
2023-03-07T17:50:24.671Z,10.66
2023-03-07T17:52:53.654Z,9.08
2023-03-07T17:55:21.471Z,8.10
2023-03-07T17:57:50.174Z,6.93
2023-03-07T18:00:20.760Z,7.19
2023-03-07T18:02:48.495Z,7.78
2023-03-07T18:05:15.960Z,9.02
2023-03-07T18:07:43.312Z,8.55
2023-03-07T18:10:12.723Z,8.56
2023-03-07T18:12:40.161Z,7.73
2023-03-07T18:15:14.906Z,8.32
2023-03-07T18:17:48.204Z,8.31
2023-03-07T18:20:18.276Z,8.02
2023-03-07T18:22:46.264Z,7.69
2023-03-07T18:25:16.019Z,7.55
2023-03-07T18:27:44.840Z,7.21
2023-03-07T18:30:14.980Z,6.95
2023-03-07T18:32:42.165Z,6.94
2023-03-07T18:35:10.244Z,6.68
2023-03-07T18:37:37.524Z,6.83
2023-03-07T18:40:05.772Z,7.43
2023-03-07T18:42:33.632Z,6.71
2023-03-07T18:45:00.843Z,6.04
2023-03-07T18:47:29.545Z,7.96
2023-03-07T18:49:56.789Z,6.67
2023-03-07T18:52:24.446Z,4.75
2023-03-07T18:54:51.908Z,3.63
2023-03-07T18:57:19.064Z,3.23
2023-03-07T18:59:46.278Z,3.76
2023-03-07T19:02:13.497Z,3.35
2023-03-07T19:04:42.150Z,3.68
2023-03-07T19:07:09.438Z,3.94
2023-03-07T19:09:36.671Z,3.85
2023-03-07T19:12:04.069Z,4.35
2023-03-07T19:14:31.247Z,4.37
2023-03-07T19:17:00.112Z,4.29
2023-03-07T19:19:27.509Z,3.97
2023-03-07T19:21:56.410Z,4.39
2023-03-07T19:24:23.582Z,4.65
2023-03-07T19:26:50.820Z,4.10
2023-03-07T19:29:18.045Z,4.19
2023-03-07T19:31:45.452Z,4.69
2023-03-07T19:34:12.645Z,4.75
2023-03-07T19:36:40.340Z,4.88
2023-03-07T19:39:11.361Z,4.91
2023-03-07T19:41:41.279Z,4.96
2023-03-07T19:44:08.594Z,5.14
2023-03-07T19:46:36.023Z,5.43
2023-03-07T19:49:03.225Z,4.99
2023-03-07T19:51:30.729Z,4.69
2023-03-07T19:53:59.094Z,4.82
2023-03-07T19:56:30.196Z,5.18
2023-03-07T19:58:59.242Z,5.47
2023-03-07T20:01:28.809Z,6.06
2023-03-07T20:03:56.197Z,5.52
2023-03-07T20:06:27.708Z,5.80
2023-03-07T20:08:56.003Z,5.35
2023-03-07T20:11:27.002Z,5.41
2023-03-07T20:13:57.225Z,5.58
2023-03-07T20:16:26.561Z,13.22
2023-03-07T20:18:55.577Z,7.56
2023-03-07T20:21:27.533Z,5.73
2023-03-07T20:23:57.062Z,5.77
2023-03-07T20:26:28.174Z,5.70
2023-03-07T20:28:57.459Z,4.72
2023-03-07T20:31:25.557Z,5.94
2023-03-07T20:33:53.519Z,5.72
2023-03-07T20:36:22.859Z,5.86
2023-03-07T20:38:52.310Z,5.71
2023-03-07T20:41:22.076Z,5.65
2023-03-07T20:43:51.504Z,5.21
2023-03-07T20:46:22.452Z,5.06
2023-03-07T20:48:50.370Z,5.34
2023-03-07T20:51:19.382Z,5.42
2023-03-07T20:53:50.366Z,5.74
2023-03-07T20:56:19.682Z,6.17
2023-03-07T20:58:47.299Z,5.92
2023-03-07T21:01:18.116Z,6.59
2023-03-07T21:03:47.013Z,6.60
2023-03-07T21:06:15.124Z,7.12
2023-03-07T21:08:43.163Z,6.82
2023-03-07T21:11:12.825Z,6.97
2023-03-07T21:13:43.228Z,7.17
2023-03-07T21:16:14.282Z,7.45
2023-03-07T21:18:41.914Z,7.44
2023-03-07T21:21:12.924Z,7.71
2023-03-07T21:23:42.100Z,8.08
2023-03-07T21:26:11.165Z,7.97
2023-03-07T21:28:39.481Z,8.43
2023-03-07T21:31:08.746Z,8.48
2023-03-07T21:33:36.099Z,8.48
2023-03-07T21:36:04.415Z,8.53
2023-03-07T21:38:34.499Z,8.93
2023-03-07T21:41:01.767Z,8.61
2023-03-07T21:43:29.310Z,9.13
2023-03-07T21:45:56.495Z,9.26
2023-03-07T21:48:23.719Z,8.99
2023-03-07T21:50:52.315Z,9.10
2023-03-07T21:53:19.698Z,9.09
2023-03-07T21:55:53.144Z,9.26
2023-03-07T21:58:21.718Z,9.68
2023-03-07T22:00:49.875Z,9.28
2023-03-07T22:03:18.197Z,9.91
2023-03-07T22:05:45.541Z,9.27
2023-03-07T22:08:13.299Z,9.76
2023-03-07T22:10:40.556Z,10.46
2023-03-07T22:13:09.178Z,10.17
2023-03-07T22:15:39.221Z,11.18
2023-03-07T22:18:06.735Z,10.93
2023-03-07T22:20:34.157Z,10.40
2023-03-07T22:23:01.405Z,10.63
2023-03-07T22:25:28.658Z,10.86
2023-03-07T22:27:55.833Z,10.87
2023-03-07T22:30:24.497Z,10.56
2023-03-07T22:32:51.643Z,10.91
2023-03-07T22:35:18.876Z,10.87
2023-03-07T22:37:46.035Z,10.90
2023-03-07T22:40:14.076Z,10.24
2023-03-07T22:42:41.255Z,10.67
2023-03-07T22:45:09.461Z,10.54
2023-03-07T22:47:38.103Z,10.65
2023-03-07T22:50:06.575Z,10.94
2023-03-07T22:52:33.674Z,10.51
2023-03-07T22:55:00.914Z,11.08
2023-03-07T22:57:28.347Z,11.00
2023-03-07T22:59:55.496Z,10.84
2023-03-07T23:02:22.694Z,10.80
2023-03-07T23:04:53.439Z,10.61
2023-03-07T23:07:20.675Z,10.72
2023-03-07T23:09:47.824Z,11.30
2023-03-07T23:12:14.988Z,10.68
2023-03-07T23:14:42.116Z,10.68
2023-03-07T23:17:09.258Z,10.95
2023-03-07T23:19:36.436Z,11.18
2023-03-07T23:22:05.155Z,11.14
2023-03-07T23:24:32.435Z,10.67
2023-03-07T23:26:59.702Z,11.03
2023-03-07T23:29:26.934Z,10.47
2023-03-07T23:31:54.133Z,10.76
2023-03-07T23:34:21.343Z,10.77
2023-03-07T23:36:48.597Z,10.86
2023-03-07T23:39:17.173Z,10.83
2023-03-07T23:41:44.341Z,10.44
2023-03-07T23:44:11.458Z,10.70
2023-03-07T23:46:39.861Z,10.54
2023-03-07T23:49:07.374Z,10.21
2023-03-07T23:51:34.649Z,10.04
2023-03-07T23:54:01.792Z,11.26
2023-03-07T23:56:30.656Z,10.69
2023-03-07T23:58:57.853Z,10.68
